sensor_id;sensor_type;location;lat;lon;timestamp;pressure;altitude;pressure_sealevel;temperature;humidity
26563;BME280;14217;50.986;5.826;2022-11-24T00:04:24;99788.31;;;18.32;43.07
26563;BME280;14217;50.986;5.826;2022-11-24T00:09:26;99783.84;;;18.33;43.09
26563;BME280;14217;50.986;5.826;2022-11-24T00:14:28;99786.19;;;18.23;43.24
26563;BME280;14217;50.986;5.826;2022-11-24T00:19:30;99782.50;;;18.25;43.14
26563;BME280;14217;50.986;5.826;2022-11-24T00:24:32;99796.63;;;18.26;43.01
26563;BME280;14217;50.986;5.826;2022-11-24T00:29:34;99789.03;;;18.20;43.14
26563;BME280;14217;50.986;5.826;2022-11-24T00:34:36;99796.31;;;18.16;43.07
26563;BME280;14217;50.986;5.826;2022-11-24T00:39:39;99799.94;;;18.29;43.02
26563;BME280;14217;50.986;5.826;2022-11-24T00:44:41;99797.56;;;18.25;43.08
26563;BME280;14217;50.986;5.826;2022-11-24T00:49:43;99810.81;;;18.25;42.92
26563;BME280;14217;50.986;5.826;2022-11-24T00:54:45;99810.25;;;18.20;42.94
26563;BME280;14217;50.986;5.826;2022-11-24T00:59:47;99799.44;;;18.23;42.84
26563;BME280;14217;50.986;5.826;2022-11-24T01:04:49;99820.75;;;18.21;42.89
26563;BME280;14217;50.986;5.826;2022-11-24T01:09:51;99822.91;;;18.15;43.35
26563;BME280;14217;50.986;5.826;2022-11-24T01:14:53;99838.72;;;18.16;43.27
26563;BME280;14217;50.986;5.826;2022-11-24T01:19:55;99833.91;;;18.23;42.89
26563;BME280;14217;50.986;5.826;2022-11-24T01:24:57;99838.06;;;18.13;43.15
26563;BME280;14217;50.986;5.826;2022-11-24T01:29:59;99837.81;;;18.17;43.11
26563;BME280;14217;50.986;5.826;2022-11-24T01:35:05;99835.03;;;18.19;42.87
26563;BME280;14217;50.986;5.826;2022-11-24T01:40:07;99840.38;;;18.33;42.74
26563;BME280;14217;50.986;5.826;2022-11-24T01:45:29;99843.19;;;18.16;43.04
26563;BME280;14217;50.986;5.826;2022-11-24T01:50:32;99846.78;;;18.15;43.13
26563;BME280;14217;50.986;5.826;2022-11-24T01:55:38;99845.66;;;18.19;43.11
26563;BME280;14217;50.986;5.826;2022-11-24T02:00:42;99847.38;;;18.20;43.05
26563;BME280;14217;50.986;5.826;2022-11-24T02:10:51;99864.69;;;18.25;42.97
26563;BME280;14217;50.986;5.826;2022-11-24T02:15:54;99857.97;;;18.20;42.93
26563;BME280;14217;50.986;5.826;2022-11-24T02:20:57;99846.97;;;18.12;43.10
26563;BME280;14217;50.986;5.826;2022-11-24T02:26:09;99864.03;;;18.22;42.75
26563;BME280;14217;50.986;5.826;2022-11-24T02:31:14;99866.69;;;18.22;43.07
26563;BME280;14217;50.986;5.826;2022-11-24T02:36:17;99885.59;;;18.16;43.14
26563;BME280;14217;50.986;5.826;2022-11-24T02:41:20;99875.28;;;18.11;43.31
26563;BME280;14217;50.986;5.826;2022-11-24T02:46:25;99871.41;;;18.17;42.89
26563;BME280;14217;50.986;5.826;2022-11-24T02:51:27;99888.69;;;18.08;43.07
26563;BME280;14217;50.986;5.826;2022-11-24T02:56:30;99877.66;;;18.16;42.91
26563;BME280;14217;50.986;5.826;2022-11-24T03:01:32;99887.50;;;18.14;42.96
26563;BME280;14217;50.986;5.826;2022-11-24T03:06:34;99900.25;;;18.07;43.13
26563;BME280;14217;50.986;5.826;2022-11-24T03:11:37;99911.16;;;18.17;42.88
26563;BME280;14217;50.986;5.826;2022-11-24T03:16:39;99918.94;;;18.20;43.11
26563;BME280;14217;50.986;5.826;2022-11-24T03:21:41;99916.88;;;18.25;42.73
26563;BME280;14217;50.986;5.826;2022-11-24T03:26:43;99919.13;;;18.17;42.84
26563;BME280;14217;50.986;5.826;2022-11-24T03:31:45;99919.88;;;18.19;42.82
26563;BME280;14217;50.986;5.826;2022-11-24T03:36:46;99922.72;;;18.16;42.98
26563;BME280;14217;50.986;5.826;2022-11-24T03:41:49;99928.38;;;18.10;43.32
26563;BME280;14217;50.986;5.826;2022-11-24T03:46:52;99941.28;;;18.16;43.08
26563;BME280;14217;50.986;5.826;2022-11-24T03:51:54;99935.22;;;18.14;42.98
26563;BME280;14217;50.986;5.826;2022-11-24T03:56:56;99937.50;;;18.20;43.09
26563;BME280;14217;50.986;5.826;2022-11-24T04:01:58;99939.66;;;18.13;43.14
26563;BME280;14217;50.986;5.826;2022-11-24T04:06:59;99942.41;;;18.12;43.05
26563;BME280;14217;50.986;5.826;2022-11-24T04:12:01;99949.59;;;18.10;43.36
26563;BME280;14217;50.986;5.826;2022-11-24T04:17:22;99953.84;;;18.12;43.24
26563;BME280;14217;50.986;5.826;2022-11-24T04:22:24;99955.47;;;18.15;43.27
26563;BME280;14217;50.986;5.826;2022-11-24T04:27:25;99963.41;;;18.15;43.25
26563;BME280;14217;50.986;5.826;2022-11-24T04:32:27;99959.84;;;18.16;43.14
26563;BME280;14217;50.986;5.826;2022-11-24T04:37:29;99950.16;;;18.15;43.21
26563;BME280;14217;50.986;5.826;2022-11-24T04:42:31;99954.34;;;18.19;43.18
26563;BME280;14217;50.986;5.826;2022-11-24T04:47:33;99957.09;;;18.17;43.30
26563;BME280;14217;50.986;5.826;2022-11-24T04:52:35;99978.41;;;18.16;43.40
26563;BME280;14217;50.986;5.826;2022-11-24T04:57:38;99988.22;;;18.14;43.38
26563;BME280;14217;50.986;5.826;2022-11-24T05:02:40;99989.16;;;18.13;43.42
26563;BME280;14217;50.986;5.826;2022-11-24T05:07:42;99982.44;;;18.07;43.57
26563;BME280;14217;50.986;5.826;2022-11-24T05:12:44;100004.47;;;18.07;43.38
26563;BME280;14217;50.986;5.826;2022-11-24T05:17:51;100003.38;;;18.12;43.43
26563;BME280;14217;50.986;5.826;2022-11-24T05:22:54;100014.81;;;18.12;43.54
26563;BME280;14217;50.986;5.826;2022-11-24T05:28:00;100018.66;;;18.06;43.53
26563;BME280;14217;50.986;5.826;2022-11-24T05:33:07;100018.44;;;18.11;43.31
26563;BME280;14217;50.986;5.826;2022-11-24T05:38:09;100033.22;;;18.15;43.35
26563;BME280;14217;50.986;5.826;2022-11-24T05:43:12;100030.81;;;18.11;43.19
26563;BME280;14217;50.986;5.826;2022-11-24T05:48:14;100033.31;;;18.14;43.24
26563;BME280;14217;50.986;5.826;2022-11-24T05:53:17;100041.25;;;18.14;43.12
26563;BME280;14217;50.986;5.826;2022-11-24T05:58:19;100042.28;;;18.11;43.28
26563;BME280;14217;50.986;5.826;2022-11-24T06:03:21;100057.31;;;18.11;43.13
26563;BME280;14217;50.986;5.826;2022-11-24T06:08:23;100067.75;;;18.14;43.06
26563;BME280;14217;50.986;5.826;2022-11-24T06:13:31;100065.59;;;18.04;43.26
26563;BME280;14217;50.986;5.826;2022-11-24T06:18:33;100066.91;;;18.13;43.34
26563;BME280;14217;50.986;5.826;2022-11-24T06:23:35;100082.13;;;18.10;43.32
26563;BME280;14217;50.986;5.826;2022-11-24T06:28:38;100090.84;;;18.12;43.21
26563;BME280;14217;50.986;5.826;2022-11-24T06:33:40;100099.13;;;18.05;43.40
26563;BME280;14217;50.986;5.826;2022-11-24T06:38:41;100107.00;;;18.07;43.41
26563;BME280;14217;50.986;5.826;2022-11-24T06:43:44;100118.41;;;18.09;43.35
26563;BME280;14217;50.986;5.826;2022-11-24T06:48:46;100128.13;;;18.08;43.36
26563;BME280;14217;50.986;5.826;2022-11-24T06:53:51;100138.66;;;18.10;43.22
26563;BME280;14217;50.986;5.826;2022-11-24T06:58:53;100138.66;;;18.10;43.22
26563;BME280;14217;50.986;5.826;2022-11-24T07:03:55;100152.53;;;18.15;42.80
26563;BME280;14217;50.986;5.826;2022-11-24T07:08:57;100174.13;;;18.07;43.03
26563;BME280;14217;50.986;5.826;2022-11-24T07:13:59;100183.13;;;18.21;44.36
26563;BME280;14217;50.986;5.826;2022-11-24T07:19:01;100199.56;;;18.27;44.42
26563;BME280;14217;50.986;5.826;2022-11-24T07:24:03;100204.97;;;18.26;44.22
26563;BME280;14217;50.986;5.826;2022-11-24T07:29:05;100207.00;;;18.21;44.17
26563;BME280;14217;50.986;5.826;2022-11-24T07:34:07;100236.63;;;18.29;43.90
26563;BME280;14217;50.986;5.826;2022-11-24T07:39:09;100249.41;;;18.21;43.87
26563;BME280;14217;50.986;5.826;2022-11-24T07:44:11;100258.47;;;18.17;43.62
26563;BME280;14217;50.986;5.826;2022-11-24T07:49:13;100267.22;;;18.19;43.74
26563;BME280;14217;50.986;5.826;2022-11-24T07:54:15;100285.53;;;18.23;43.23
26563;BME280;14217;50.986;5.826;2022-11-24T07:59:17;100291.72;;;18.24;43.32
26563;BME280;14217;50.986;5.826;2022-11-24T08:04:19;100298.09;;;17.85;43.99
26563;BME280;14217;50.986;5.826;2022-11-24T08:09:21;100315.06;;;17.81;44.40
26563;BME280;14217;50.986;5.826;2022-11-24T08:14:23;100309.16;;;17.93;44.13
26563;BME280;14217;50.986;5.826;2022-11-24T08:19:25;100325.56;;;18.01;43.86
26563;BME280;14217;50.986;5.826;2022-11-24T08:24:26;100333.75;;;18.14;43.51
26563;BME280;14217;50.986;5.826;2022-11-24T08:29:29;100332.19;;;18.10;43.62
26563;BME280;14217;50.986;5.826;2022-11-24T08:34:31;100340.06;;;18.12;43.48
26563;BME280;14217;50.986;5.826;2022-11-24T08:39:34;100347.78;;;18.16;43.13
26563;BME280;14217;50.986;5.826;2022-11-24T08:44:36;100358.56;;;18.13;43.19
26563;BME280;14217;50.986;5.826;2022-11-24T08:49:38;100383.03;;;18.18;43.03
26563;BME280;14217;50.986;5.826;2022-11-24T08:54:40;100383.88;;;18.19;43.18
26563;BME280;14217;50.986;5.826;2022-11-24T08:59:44;100397.31;;;18.16;43.25
26563;BME280;14217;50.986;5.826;2022-11-24T09:04:46;100393.47;;;18.21;43.14
26563;BME280;14217;50.986;5.826;2022-11-24T09:09:49;100398.75;;;18.04;44.09
26563;BME280;14217;50.986;5.826;2022-11-24T09:14:50;100401.81;;;18.14;44.10
26563;BME280;14217;50.986;5.826;2022-11-24T09:19:52;100412.03;;;18.21;43.66
26563;BME280;14217;50.986;5.826;2022-11-24T09:24:55;100418.09;;;18.23;43.73
26563;BME280;14217;50.986;5.826;2022-11-24T09:29:56;100427.88;;;18.23;43.78
26563;BME280;14217;50.986;5.826;2022-11-24T09:34:58;100433.16;;;18.23;43.71
26563;BME280;14217;50.986;5.826;2022-11-24T09:40:00;100440.50;;;18.18;43.47
26563;BME280;14217;50.986;5.826;2022-11-24T09:45:13;100439.66;;;18.17;43.65
26563;BME280;14217;50.986;5.826;2022-11-24T09:50:32;100459.13;;;18.16;43.54
26563;BME280;14217;50.986;5.826;2022-11-24T09:55:48;100449.78;;;18.26;43.47
26563;BME280;14217;50.986;5.826;2022-11-24T10:00:51;100460.00;;;18.17;43.46
26563;BME280;14217;50.986;5.826;2022-11-24T10:05:54;100465.22;;;18.18;43.72
26563;BME280;14217;50.986;5.826;2022-11-24T10:10:59;100460.97;;;18.33;42.97
26563;BME280;14217;50.986;5.826;2022-11-24T10:26:50;100471.38;;;18.19;43.56
26563;BME280;14217;50.986;5.826;2022-11-24T10:31:54;100478.56;;;18.17;43.41
26563;BME280;14217;50.986;5.826;2022-11-24T10:42:33;100486.22;;;18.23;43.40
26563;BME280;14217;50.986;5.826;2022-11-24T10:47:39;100499.63;;;18.20;43.49
26563;BME280;14217;50.986;5.826;2022-11-24T10:52:45;100503.63;;;18.28;43.24
26563;BME280;14217;50.986;5.826;2022-11-24T10:57:48;100499.94;;;18.31;43.02
26563;BME280;14217;50.986;5.826;2022-11-24T11:03:09;100496.69;;;18.26;42.97
26563;BME280;14217;50.986;5.826;2022-11-24T11:08:19;100487.94;;;18.24;42.99
26563;BME280;14217;50.986;5.826;2022-11-24T11:13:29;100493.59;;;18.16;43.26
26563;BME280;14217;50.986;5.826;2022-11-24T11:18:32;100499.94;;;18.31;42.87
26563;BME280;14217;50.986;5.826;2022-11-24T11:23:34;100491.22;;;18.29;42.86
26563;BME280;14217;50.986;5.826;2022-11-24T11:28:37;100483.78;;;18.18;43.26
26563;BME280;14217;50.986;5.826;2022-11-24T11:33:38;100481.84;;;18.22;43.28
26563;BME280;14217;50.986;5.826;2022-11-24T11:39:02;100487.50;;;18.14;43.31
26563;BME280;14217;50.986;5.826;2022-11-24T11:44:16;100482.69;;;18.22;42.96
26563;BME280;14217;50.986;5.826;2022-11-24T11:49:22;100490.78;;;18.19;43.10
26563;BME280;14217;50.986;5.826;2022-11-24T11:59:47;100479.09;;;18.23;42.88
26563;BME280;14217;50.986;5.826;2022-11-24T12:04:57;100491.50;;;18.23;43.00
26563;BME280;14217;50.986;5.826;2022-11-24T12:15:49;100481.19;;;18.17;43.23
26563;BME280;14217;50.986;5.826;2022-11-24T12:21:16;100476.06;;;18.14;43.37
26563;BME280;14217;50.986;5.826;2022-11-24T12:26:56;100485.34;;;18.22;43.05
26563;BME280;14217;50.986;5.826;2022-11-24T12:32:22;100485.09;;;18.10;43.35
26563;BME280;14217;50.986;5.826;2022-11-24T12:43:11;100491.28;;;18.27;42.77
26563;BME280;14217;50.986;5.826;2022-11-24T12:53:26;100493.53;;;18.18;43.30
26563;BME280;14217;50.986;5.826;2022-11-24T12:59:01;100498.19;;;18.13;43.48
26563;BME280;14217;50.986;5.826;2022-11-24T13:04:29;100494.56;;;18.15;43.40
26563;BME280;14217;50.986;5.826;2022-11-24T13:09:34;100494.56;;;18.15;43.43
26563;BME280;14217;50.986;5.826;2022-11-24T13:14:38;100494.25;;;18.02;43.43
26563;BME280;14217;50.986;5.826;2022-11-24T13:19:42;100486.38;;;18.20;43.35
26563;BME280;14217;50.986;5.826;2022-11-24T13:24:44;100489.88;;;18.20;43.14
26563;BME280;14217;50.986;5.826;2022-11-24T13:29:47;100494.69;;;18.12;43.25
26563;BME280;14217;50.986;5.826;2022-11-24T14:01:17;100482.50;;;18.08;43.46
26563;BME280;14217;50.986;5.826;2022-11-24T14:06:31;100477.53;;;18.19;43.25
26563;BME280;14217;50.986;5.826;2022-11-24T14:11:35;100484.00;;;18.14;43.35
26563;BME280;14217;50.986;5.826;2022-11-24T14:16:37;100481.31;;;18.15;43.33
26563;BME280;14217;50.986;5.826;2022-11-24T14:21:39;100474.97;;;18.18;42.90
26563;BME280;14217;50.986;5.826;2022-11-24T14:26:45;100469.44;;;18.22;43.12
26563;BME280;14217;50.986;5.826;2022-11-24T14:31:53;100476.06;;;18.14;43.33
26563;BME280;14217;50.986;5.826;2022-11-24T14:36:59;100478.06;;;18.08;43.13
26563;BME280;14217;50.986;5.826;2022-11-24T14:47:12;100474.50;;;18.10;43.01
26563;BME280;14217;50.986;5.826;2022-11-24T14:52:17;100483.22;;;18.12;43.28
26563;BME280;14217;50.986;5.826;2022-11-24T14:57:29;100489.16;;;18.17;42.94
26563;BME280;14217;50.986;5.826;2022-11-24T15:02:51;100488.31;;;18.16;43.11
26563;BME280;14217;50.986;5.826;2022-11-24T15:08:00;100500.72;;;18.16;42.93
26563;BME280;14217;50.986;5.826;2022-11-24T15:13:12;100505.94;;;18.17;43.11
26563;BME280;14217;50.986;5.826;2022-11-24T15:18:31;100509.03;;;18.08;43.01
26563;BME280;14217;50.986;5.826;2022-11-24T15:23:35;100510.53;;;18.14;42.98
26563;BME280;14217;50.986;5.826;2022-11-24T15:28:37;100507.44;;;18.04;43.18
26563;BME280;14217;50.986;5.826;2022-11-24T15:33:40;100507.75;;;17.98;43.54
26563;BME280;14217;50.986;5.826;2022-11-24T15:38:42;100512.75;;;18.04;43.22
26563;BME280;14217;50.986;5.826;2022-11-24T15:43:44;100515.41;;;18.04;43.25
26563;BME280;14217;50.986;5.826;2022-11-24T15:48:46;100516.47;;;18.19;43.02
26563;BME280;14217;50.986;5.826;2022-11-24T15:53:50;100514.09;;;18.13;42.99
26563;BME280;14217;50.986;5.826;2022-11-24T15:59:00;100527.44;;;18.11;43.09
26563;BME280;14217;50.986;5.826;2022-11-24T16:04:03;100521.13;;;18.14;43.05
26563;BME280;14217;50.986;5.826;2022-11-24T16:09:05;100527.34;;;18.13;42.83
26563;BME280;14217;50.986;5.826;2022-11-24T16:14:07;100514.03;;;18.14;43.02
26563;BME280;14217;50.986;5.826;2022-11-24T16:19:09;100517.63;;;18.13;43.01
26563;BME280;14217;50.986;5.826;2022-11-24T16:24:11;100523.91;;;18.11;42.80
26563;BME280;14217;50.986;5.826;2022-11-24T16:29:13;100537.34;;;18.07;43.10
26563;BME280;14217;50.986;5.826;2022-11-24T16:34:15;100538.06;;;18.11;43.10
26563;BME280;14217;50.986;5.826;2022-11-24T16:39:17;100527.28;;;18.14;42.90
26563;BME280;14217;50.986;5.826;2022-11-24T16:44:19;100534.81;;;18.04;43.27
26563;BME280;14217;50.986;5.826;2022-11-24T16:49:21;100534.47;;;17.93;43.36
26563;BME280;14217;50.986;5.826;2022-11-24T16:54:23;100535.41;;;17.92;43.53
26563;BME280;14217;50.986;5.826;2022-11-24T16:59:26;100535.97;;;17.99;43.47
26563;BME280;14217;50.986;5.826;2022-11-24T17:04:28;100537.69;;;18.00;43.34
26563;BME280;14217;50.986;5.826;2022-11-24T17:09:31;100534.34;;;17.96;43.41
26563;BME280;14217;50.986;5.826;2022-11-24T17:14:40;100531.69;;;17.96;43.11
26563;BME280;14217;50.986;5.826;2022-11-24T17:19:49;100530.75;;;17.97;43.03
26563;BME280;14217;50.986;5.826;2022-11-24T17:24:51;100531.59;;;17.98;43.17
26563;BME280;14217;50.986;5.826;2022-11-24T17:29:53;100521.66;;;18.03;42.96
26563;BME280;14217;50.986;5.826;2022-11-24T17:34:55;100532.38;;;18.00;42.79
26563;BME280;14217;50.986;5.826;2022-11-24T17:39:57;100535.41;;;17.92;43.10
26563;BME280;14217;50.986;5.826;2022-11-24T17:45:18;100541.63;;;17.91;43.13
26563;BME280;14217;50.986;5.826;2022-11-24T17:50:20;100540.44;;;17.98;42.84
26563;BME280;14217;50.986;5.826;2022-11-24T17:55:29;100538.84;;;17.94;43.15
26563;BME280;14217;50.986;5.826;2022-11-24T18:00:32;100551.59;;;18.05;42.85
26563;BME280;14217;50.986;5.826;2022-11-24T18:05:35;100545.63;;;18.00;42.87
26563;BME280;14217;50.986;5.826;2022-11-24T18:10:37;100548.28;;;18.00;43.08
26563;BME280;14217;50.986;5.826;2022-11-24T18:15:39;100541.84;;;18.05;42.65
26563;BME280;14217;50.986;5.826;2022-11-24T18:20:41;100544.56;;;18.04;42.85
26563;BME280;14217;50.986;5.826;2022-11-24T18:25:51;100537.63;;;18.01;42.73
26563;BME280;14217;50.986;5.826;2022-11-24T18:31:06;100527.03;;;17.81;43.53
26563;BME280;14217;50.986;5.826;2022-11-24T18:36:12;100509.81;;;17.91;43.84
26563;BME280;14217;50.986;5.826;2022-11-24T18:41:14;100510.63;;;17.93;43.69
26563;BME280;14217;50.986;5.826;2022-11-24T18:46:17;100511.63;;;17.91;43.70
26563;BME280;14217;50.986;5.826;2022-11-24T18:51:19;100511.56;;;17.92;43.34
26563;BME280;14217;50.986;5.826;2022-11-24T18:56:23;100510.47;;;17.96;43.42
26563;BME280;14217;50.986;5.826;2022-11-24T19:01:27;100508.91;;;17.92;43.44
26563;BME280;14217;50.986;5.826;2022-11-24T19:06:32;100502.59;;;17.95;43.14
26563;BME280;14217;50.986;5.826;2022-11-24T19:11:38;100501.44;;;18.00;42.89
26563;BME280;14217;50.986;5.826;2022-11-24T19:16:41;100506.53;;;18.05;43.10
26563;BME280;14217;50.986;5.826;2022-11-24T19:21:43;100500.66;;;17.98;43.19
26563;BME280;14217;50.986;5.826;2022-11-24T19:26:45;100497.50;;;18.09;42.64
26563;BME280;14217;50.986;5.826;2022-11-24T19:31:47;100489.63;;;18.07;42.71
26563;BME280;14217;50.986;5.826;2022-11-24T19:36:49;100497.59;;;17.88;43.36
26563;BME280;14217;50.986;5.826;2022-11-24T19:41:51;100490.06;;;17.98;42.79
26563;BME280;14217;50.986;5.826;2022-11-24T19:46:53;100473.50;;;17.93;42.96
26563;BME280;14217;50.986;5.826;2022-11-24T19:51:55;100482.97;;;17.99;42.97
26563;BME280;14217;50.986;5.826;2022-11-24T19:56:57;100481.94;;;18.01;42.67
26563;BME280;14217;50.986;5.826;2022-11-24T20:01:59;100489.19;;;17.98;42.73
26563;BME280;14217;50.986;5.826;2022-11-24T20:07:02;100497.13;;;17.98;42.90
26563;BME280;14217;50.986;5.826;2022-11-24T20:12:04;100508.75;;;17.95;42.93
26563;BME280;14217;50.986;5.826;2022-11-24T20:17:06;100518.34;;;17.98;43.06
26563;BME280;14217;50.986;5.826;2022-11-24T20:22:09;100505.88;;;18.00;42.70
26563;BME280;14217;50.986;5.826;2022-11-24T20:27:11;100499.88;;;17.96;42.95
26563;BME280;14217;50.986;5.826;2022-11-24T20:32:12;100485.16;;;18.08;42.64
26563;BME280;14217;50.986;5.826;2022-11-24T20:37:19;100491.53;;;18.04;42.69
26563;BME280;14217;50.986;5.826;2022-11-24T20:42:21;100497.91;;;18.00;42.92
26563;BME280;14217;50.986;5.826;2022-11-24T20:47:23;100506.03;;;17.97;42.89
26563;BME280;14217;50.986;5.826;2022-11-24T20:52:25;100501.13;;;18.06;42.75
26563;BME280;14217;50.986;5.826;2022-11-24T20:57:27;100511.03;;;18.03;42.84
26563;BME280;14217;50.986;5.826;2022-11-24T21:02:29;100497.84;;;18.01;42.88
26563;BME280;14217;50.986;5.826;2022-11-24T21:07:32;100495.28;;;18.00;42.72
26563;BME280;14217;50.986;5.826;2022-11-24T21:12:34;100494.25;;;18.02;42.75
26563;BME280;14217;50.986;5.826;2022-11-24T21:17:36;100493.78;;;17.94;42.88
26563;BME280;14217;50.986;5.826;2022-11-24T21:22:38;100492.56;;;18.01;42.44
26563;BME280;14217;50.986;5.826;2022-11-24T21:27:40;100479.38;;;18.00;42.84
26563;BME280;14217;50.986;5.826;2022-11-24T21:32:42;100482.75;;;18.03;42.72
26563;BME280;14217;50.986;5.826;2022-11-24T21:37:44;100479.59;;;17.95;42.75
26563;BME280;14217;50.986;5.826;2022-11-24T21:42:46;100484.75;;;17.98;42.70
26563;BME280;14217;50.986;5.826;2022-11-24T21:47:48;100473.22;;;17.99;43.44
26563;BME280;14217;50.986;5.826;2022-11-24T21:52:51;100476.84;;;17.78;47.14
26563;BME280;14217;50.986;5.826;2022-11-24T21:57:53;100473.41;;;17.76;47.09
26563;BME280;14217;50.986;5.826;2022-11-24T22:02:55;100452.75;;;17.84;46.83
26563;BME280;14217;50.986;5.826;2022-11-24T22:07:57;100441.56;;;17.77;46.76
26563;BME280;14217;50.986;5.826;2022-11-24T22:12:59;100428.16;;;17.80;46.74
26563;BME280;14217;50.986;5.826;2022-11-24T22:18:01;100417.66;;;18.15;45.58
26563;BME280;14217;50.986;5.826;2022-11-24T22:23:03;100417.06;;;18.08;45.57
26563;BME280;14217;50.986;5.826;2022-11-24T22:28:05;100398.44;;;18.10;44.98
26563;BME280;14217;50.986;5.826;2022-11-24T22:33:07;100399.09;;;18.15;44.74
26563;BME280;14217;50.986;5.826;2022-11-24T22:38:09;100397.06;;;18.03;44.99
26563;BME280;14217;50.986;5.826;2022-11-24T22:43:11;100395.66;;;18.13;44.51
26563;BME280;14217;50.986;5.826;2022-11-24T22:48:13;100392.31;;;18.10;44.73
26563;BME280;14217;50.986;5.826;2022-11-24T22:53:15;100391.34;;;18.11;44.53
26563;BME280;14217;50.986;5.826;2022-11-24T22:58:17;100393.09;;;18.12;44.15
26563;BME280;14217;50.986;5.826;2022-11-24T23:03:19;100388.94;;;18.06;44.15
26563;BME280;14217;50.986;5.826;2022-11-24T23:08:22;100394.94;;;18.10;44.14
26563;BME280;14217;50.986;5.826;2022-11-24T23:13:24;100401.81;;;18.14;43.83
26563;BME280;14217;50.986;5.826;2022-11-24T23:18:25;100401.50;;;18.20;43.89
26563;BME280;14217;50.986;5.826;2022-11-24T23:23:27;100407.34;;;18.09;43.81
26563;BME280;14217;50.986;5.826;2022-11-24T23:28:30;100403.63;;;18.13;43.91
26563;BME280;14217;50.986;5.826;2022-11-24T23:33:32;100399.94;;;18.16;43.82
26563;BME280;14217;50.986;5.826;2022-11-24T23:38:34;100387.78;;;18.12;43.56
26563;BME280;14217;50.986;5.826;2022-11-24T23:43:39;100386.06;;;18.11;43.77
26563;BME280;14217;50.986;5.826;2022-11-24T23:48:41;100386.84;;;18.13;43.79
26563;BME280;14217;50.986;5.826;2022-11-24T23:53:43;100371.53;;;18.00;43.63
26563;BME280;14217;50.986;5.826;2022-11-24T23:58:45;100375.31;;;18.14;43.51
